sensor_id;sensor_type;location;lat;lon;timestamp;temperature;humidity
67559;DHT22;54388;53.536;49.300;2023-06-04T00:00:01;23.10;37.60
67559;DHT22;54388;53.536;49.300;2023-06-04T00:02:32;23.00;37.50
67559;DHT22;54388;53.536;49.300;2023-06-04T00:05:01;23.00;37.50
67559;DHT22;54388;53.536;49.300;2023-06-04T00:07:28;23.00;37.60
67559;DHT22;54388;53.536;49.300;2023-06-04T00:09:57;23.00;37.70
67559;DHT22;54388;53.536;49.300;2023-06-04T00:12:26;22.90;37.70
67559;DHT22;54388;53.536;49.300;2023-06-04T00:14:52;22.90;37.80
67559;DHT22;54388;53.536;49.300;2023-06-04T00:17:18;22.90;37.90
67559;DHT22;54388;53.536;49.300;2023-06-04T00:19:45;22.90;38.00
67559;DHT22;54388;53.536;49.300;2023-06-04T00:22:11;22.90;38.20
67559;DHT22;54388;53.536;49.300;2023-06-04T00:24:38;22.90;38.30
67559;DHT22;54388;53.536;49.300;2023-06-04T00:27:08;22.80;38.40
67559;DHT22;54388;53.536;49.300;2023-06-04T00:29:35;22.80;38.50
67559;DHT22;54388;53.536;49.300;2023-06-04T00:32:02;22.80;38.70
67559;DHT22;54388;53.536;49.300;2023-06-04T00:34:29;22.80;38.90
67559;DHT22;54388;53.536;49.300;2023-06-04T00:36:55;22.80;39.00
67559;DHT22;54388;53.536;49.300;2023-06-04T00:39:21;22.80;39.10
67559;DHT22;54388;53.536;49.300;2023-06-04T00:41:48;22.70;39.00
67559;DHT22;54388;53.536;49.300;2023-06-04T00:44:14;22.80;39.10
67559;DHT22;54388;53.536;49.300;2023-06-04T00:46:41;22.80;39.40
67559;DHT22;54388;53.536;49.300;2023-06-04T00:49:13;22.80;39.40
67559;DHT22;54388;53.536;49.300;2023-06-04T00:51:40;22.80;39.50
67559;DHT22;54388;53.536;49.300;2023-06-04T00:54:09;22.70;39.50
67559;DHT22;54388;53.536;49.300;2023-06-04T00:56:38;22.80;39.60
67559;DHT22;54388;53.536;49.300;2023-06-04T00:59:07;22.80;39.60
67559;DHT22;54388;53.536;49.300;2023-06-04T01:01:56;22.80;39.60
67559;DHT22;54388;53.536;49.300;2023-06-04T01:07:19;23.00;39.40
67559;DHT22;54388;53.536;49.300;2023-06-04T01:09:46;23.10;39.30
67559;DHT22;54388;53.536;49.300;2023-06-04T01:12:15;23.10;39.20
67559;DHT22;54388;53.536;49.300;2023-06-04T01:14:44;23.20;39.00
67559;DHT22;54388;53.536;49.300;2023-06-04T01:22:48;23.50;38.50
67559;DHT22;54388;53.536;49.300;2023-06-04T01:25:36;23.60;39.10
67559;DHT22;54388;53.536;49.300;2023-06-04T01:28:11;23.80;37.90
67559;DHT22;54388;53.536;49.300;2023-06-04T01:30:49;23.90;37.70
67559;DHT22;54388;53.536;49.300;2023-06-04T01:33:19;23.90;37.60
67559;DHT22;54388;53.536;49.300;2023-06-04T01:35:46;24.00;37.60
67559;DHT22;54388;53.536;49.300;2023-06-04T01:38:13;24.10;37.40
67559;DHT22;54388;53.536;49.300;2023-06-04T01:40:42;24.10;37.30
67559;DHT22;54388;53.536;49.300;2023-06-04T01:43:08;24.10;37.20
67559;DHT22;54388;53.536;49.300;2023-06-04T01:45:37;24.20;37.00
67559;DHT22;54388;53.536;49.300;2023-06-04T01:48:04;24.30;36.80
67559;DHT22;54388;53.536;49.300;2023-06-04T01:50:31;24.30;36.60
67559;DHT22;54388;53.536;49.300;2023-06-04T01:52:58;24.40;36.60
67559;DHT22;54388;53.536;49.300;2023-06-04T01:55:25;24.40;36.50
67559;DHT22;54388;53.536;49.300;2023-06-04T01:57:52;24.40;36.40
67559;DHT22;54388;53.536;49.300;2023-06-04T02:00:18;24.50;36.50
67559;DHT22;54388;53.536;49.300;2023-06-04T02:02:46;24.50;36.40
67559;DHT22;54388;53.536;49.300;2023-06-04T02:05:15;24.70;36.40
67559;DHT22;54388;53.536;49.300;2023-06-04T02:07:42;24.80;36.30
67559;DHT22;54388;53.536;49.300;2023-06-04T02:10:12;25.00;36.00
67559;DHT22;54388;53.536;49.300;2023-06-04T02:12:41;25.30;35.80
67559;DHT22;54388;53.536;49.300;2023-06-04T02:15:10;25.50;35.70
67559;DHT22;54388;53.536;49.300;2023-06-04T02:17:37;25.70;35.30
67559;DHT22;54388;53.536;49.300;2023-06-04T02:20:12;26.00;35.00
67559;DHT22;54388;53.536;49.300;2023-06-04T02:22:38;26.20;34.70
67559;DHT22;54388;53.536;49.300;2023-06-04T02:25:05;26.50;34.30
67559;DHT22;54388;53.536;49.300;2023-06-04T02:27:37;26.80;34.00
67559;DHT22;54388;53.536;49.300;2023-06-04T02:30:12;27.00;33.40
67559;DHT22;54388;53.536;49.300;2023-06-04T02:32:38;27.30;32.80
67559;DHT22;54388;53.536;49.300;2023-06-04T02:35:07;27.60;32.40
67559;DHT22;54388;53.536;49.300;2023-06-04T02:37:37;27.90;32.10
67559;DHT22;54388;53.536;49.300;2023-06-04T02:40:10;28.10;31.30
67559;DHT22;54388;53.536;49.300;2023-06-04T02:42:36;28.40;31.60
67559;DHT22;54388;53.536;49.300;2023-06-04T02:45:03;28.70;30.20
67559;DHT22;54388;53.536;49.300;2023-06-04T02:47:29;28.90;29.80
67559;DHT22;54388;53.536;49.300;2023-06-04T02:49:56;29.30;29.40
67559;DHT22;54388;53.536;49.300;2023-06-04T02:52:25;29.50;28.90
67559;DHT22;54388;53.536;49.300;2023-06-04T02:54:52;29.90;28.70
67559;DHT22;54388;53.536;49.300;2023-06-04T02:57:19;30.10;28.20
67559;DHT22;54388;53.536;49.300;2023-06-04T02:59:48;30.50;28.00
67559;DHT22;54388;53.536;49.300;2023-06-04T03:02:15;30.70;27.50
67559;DHT22;54388;53.536;49.300;2023-06-04T03:04:42;31.00;27.20
67559;DHT22;54388;53.536;49.300;2023-06-04T03:07:11;31.20;26.80
67559;DHT22;54388;53.536;49.300;2023-06-04T03:09:38;31.50;26.40
67559;DHT22;54388;53.536;49.300;2023-06-04T03:12:05;31.80;26.10
67559;DHT22;54388;53.536;49.300;2023-06-04T03:14:32;32.10;25.70
67559;DHT22;54388;53.536;49.300;2023-06-04T03:17:03;32.40;25.50
67559;DHT22;54388;53.536;49.300;2023-06-04T03:19:39;32.60;25.30
67559;DHT22;54388;53.536;49.300;2023-06-04T03:22:09;32.80;25.90
67559;DHT22;54388;53.536;49.300;2023-06-04T03:24:39;33.10;25.00
67559;DHT22;54388;53.536;49.300;2023-06-04T03:27:08;33.30;24.60
67559;DHT22;54388;53.536;49.300;2023-06-04T03:29:38;33.50;24.10
67559;DHT22;54388;53.536;49.300;2023-06-04T03:32:05;33.70;23.70
67559;DHT22;54388;53.536;49.300;2023-06-04T03:34:34;33.80;23.50
67559;DHT22;54388;53.536;49.300;2023-06-04T03:37:04;34.00;23.10
67559;DHT22;54388;53.536;49.300;2023-06-04T03:39:31;34.20;23.00
67559;DHT22;54388;53.536;49.300;2023-06-04T03:41:58;34.30;22.80
67559;DHT22;54388;53.536;49.300;2023-06-04T03:44:27;34.40;22.60
67559;DHT22;54388;53.536;49.300;2023-06-04T03:46:56;34.60;22.30
67559;DHT22;54388;53.536;49.300;2023-06-04T03:49:26;34.80;22.00
67559;DHT22;54388;53.536;49.300;2023-06-04T03:51:53;35.00;21.80
67559;DHT22;54388;53.536;49.300;2023-06-04T03:54:20;35.10;21.60
67559;DHT22;54388;53.536;49.300;2023-06-04T03:56:50;35.30;21.40
67559;DHT22;54388;53.536;49.300;2023-06-04T03:59:21;35.40;21.10
67559;DHT22;54388;53.536;49.300;2023-06-04T04:01:50;35.70;21.00
67559;DHT22;54388;53.536;49.300;2023-06-04T04:04:20;35.80;20.80
67559;DHT22;54388;53.536;49.300;2023-06-04T04:06:46;36.00;20.80
67559;DHT22;54388;53.536;49.300;2023-06-04T04:09:15;36.10;20.50
67559;DHT22;54388;53.536;49.300;2023-06-04T04:11:44;36.30;20.30
67559;DHT22;54388;53.536;49.300;2023-06-04T04:14:11;36.50;20.20
67559;DHT22;54388;53.536;49.300;2023-06-04T04:16:37;36.70;20.10
67559;DHT22;54388;53.536;49.300;2023-06-04T04:19:04;36.80;20.00
67559;DHT22;54388;53.536;49.300;2023-06-04T04:21:36;36.90;20.00
67559;DHT22;54388;53.536;49.300;2023-06-04T04:24:04;37.00;19.70
67559;DHT22;54388;53.536;49.300;2023-06-04T04:26:33;37.10;19.60
67559;DHT22;54388;53.536;49.300;2023-06-04T04:29:00;37.30;19.50
67559;DHT22;54388;53.536;49.300;2023-06-04T04:31:29;37.50;19.40
67559;DHT22;54388;53.536;49.300;2023-06-04T04:33:56;37.70;20.10
67559;DHT22;54388;53.536;49.300;2023-06-04T04:36:23;37.90;19.10
67559;DHT22;54388;53.536;49.300;2023-06-04T04:38:49;38.20;19.00
67559;DHT22;54388;53.536;49.300;2023-06-04T04:41:20;38.40;19.00
67559;DHT22;54388;53.536;49.300;2023-06-04T04:43:48;38.60;18.60
67559;DHT22;54388;53.536;49.300;2023-06-04T04:46:17;38.90;18.40
67559;DHT22;54388;53.536;49.300;2023-06-04T04:48:44;39.10;18.10
67559;DHT22;54388;53.536;49.300;2023-06-04T04:51:13;39.30;18.10
67559;DHT22;54388;53.536;49.300;2023-06-04T04:53:39;39.50;17.80
67559;DHT22;54388;53.536;49.300;2023-06-04T04:56:09;39.80;17.60
67559;DHT22;54388;53.536;49.300;2023-06-04T04:58:35;40.00;17.40
67559;DHT22;54388;53.536;49.300;2023-06-04T05:01:04;40.20;17.00
67559;DHT22;54388;53.536;49.300;2023-06-04T05:03:31;40.40;17.00
67559;DHT22;54388;53.536;49.300;2023-06-04T05:05:58;40.60;16.80
67559;DHT22;54388;53.536;49.300;2023-06-04T05:08:25;40.70;16.90
67559;DHT22;54388;53.536;49.300;2023-06-04T05:10:51;40.70;17.00
67559;DHT22;54388;53.536;49.300;2023-06-04T05:13:18;40.70;17.10
67559;DHT22;54388;53.536;49.300;2023-06-04T05:15:49;40.70;17.10
67559;DHT22;54388;53.536;49.300;2023-06-04T05:18:19;40.70;17.30
67559;DHT22;54388;53.536;49.300;2023-06-04T05:20:55;40.60;17.40
67559;DHT22;54388;53.536;49.300;2023-06-04T05:23:28;40.60;17.70
67559;DHT22;54388;53.536;49.300;2023-06-04T05:25:56;40.50;17.90
67559;DHT22;54388;53.536;49.300;2023-06-04T05:28:22;40.40;17.90
67559;DHT22;54388;53.536;49.300;2023-06-04T05:30:54;40.30;18.00
67559;DHT22;54388;53.536;49.300;2023-06-04T05:33:28;40.20;18.20
67559;DHT22;54388;53.536;49.300;2023-06-04T05:35:57;40.10;18.10
67559;DHT22;54388;53.536;49.300;2023-06-04T05:38:25;40.00;18.10
67559;DHT22;54388;53.536;49.300;2023-06-04T05:40:59;39.90;18.10
67559;DHT22;54388;53.536;49.300;2023-06-04T05:43:26;39.90;18.10
67559;DHT22;54388;53.536;49.300;2023-06-04T05:45:55;39.90;18.20
67559;DHT22;54388;53.536;49.300;2023-06-04T05:48:27;39.80;18.10
67559;DHT22;54388;53.536;49.300;2023-06-04T05:50:56;39.70;18.10
67559;DHT22;54388;53.536;49.300;2023-06-04T05:53:25;39.50;18.10
67559;DHT22;54388;53.536;49.300;2023-06-04T05:55:52;39.40;18.10
67559;DHT22;54388;53.536;49.300;2023-06-04T05:58:19;39.30;18.40
67559;DHT22;54388;53.536;49.300;2023-06-04T06:00:48;39.20;18.60
67559;DHT22;54388;53.536;49.300;2023-06-04T06:03:16;39.20;18.80
67559;DHT22;54388;53.536;49.300;2023-06-04T06:05:45;39.20;18.70
67559;DHT22;54388;53.536;49.300;2023-06-04T06:08:14;39.30;18.60
67559;DHT22;54388;53.536;49.300;2023-06-04T06:10:43;39.40;18.70
67559;DHT22;54388;53.536;49.300;2023-06-04T06:13:10;39.50;18.60
67559;DHT22;54388;53.536;49.300;2023-06-04T06:15:39;39.60;18.80
67559;DHT22;54388;53.536;49.300;2023-06-04T06:18:08;39.70;18.60
67559;DHT22;54388;53.536;49.300;2023-06-04T06:20:38;39.90;18.40
67559;DHT22;54388;53.536;49.300;2023-06-04T06:23:10;40.00;18.10
67559;DHT22;54388;53.536;49.300;2023-06-04T06:25:39;40.20;17.90
67559;DHT22;54388;53.536;49.300;2023-06-04T06:28:12;40.40;17.80
67559;DHT22;54388;53.536;49.300;2023-06-04T06:30:39;40.60;17.80
67559;DHT22;54388;53.536;49.300;2023-06-04T06:33:06;40.80;17.70
67559;DHT22;54388;53.536;49.300;2023-06-04T06:35:32;41.00;17.60
67559;DHT22;54388;53.536;49.300;2023-06-04T06:38:02;41.20;17.40
67559;DHT22;54388;53.536;49.300;2023-06-04T06:40:29;41.40;17.40
67559;DHT22;54388;53.536;49.300;2023-06-04T06:42:57;41.50;17.30
67559;DHT22;54388;53.536;49.300;2023-06-04T06:45:23;41.60;17.20
67559;DHT22;54388;53.536;49.300;2023-06-04T06:47:53;41.70;17.10
67559;DHT22;54388;53.536;49.300;2023-06-04T06:50:20;41.90;17.00
67559;DHT22;54388;53.536;49.300;2023-06-04T06:52:49;42.00;16.90
67559;DHT22;54388;53.536;49.300;2023-06-04T06:55:16;42.10;16.90
67559;DHT22;54388;53.536;49.300;2023-06-04T06:57:44;42.10;17.00
67559;DHT22;54388;53.536;49.300;2023-06-04T07:00:11;42.10;17.00
67559;DHT22;54388;53.536;49.300;2023-06-04T07:02:38;42.20;17.00
67559;DHT22;54388;53.536;49.300;2023-06-04T07:05:05;42.20;16.40
67559;DHT22;54388;53.536;49.300;2023-06-04T07:07:35;42.40;16.00
67559;DHT22;54388;53.536;49.300;2023-06-04T07:10:05;42.60;15.90
67559;DHT22;54388;53.536;49.300;2023-06-04T07:12:34;42.80;15.80
67559;DHT22;54388;53.536;49.300;2023-06-04T07:15:04;42.90;15.80
67559;DHT22;54388;53.536;49.300;2023-06-04T07:17:31;43.00;15.90
67559;DHT22;54388;53.536;49.300;2023-06-04T07:20:02;43.10;15.80
67559;DHT22;54388;53.536;49.300;2023-06-04T07:22:35;43.10;15.80
67559;DHT22;54388;53.536;49.300;2023-06-04T07:25:05;43.00;15.90
67559;DHT22;54388;53.536;49.300;2023-06-04T07:27:37;42.90;16.00
67559;DHT22;54388;53.536;49.300;2023-06-04T07:30:06;42.90;16.10
67559;DHT22;54388;53.536;49.300;2023-06-04T07:32:36;42.90;16.20
67559;DHT22;54388;53.536;49.300;2023-06-04T07:35:04;42.80;16.10
67559;DHT22;54388;53.536;49.300;2023-06-04T07:37:30;42.80;16.20
67559;DHT22;54388;53.536;49.300;2023-06-04T07:39:57;42.80;16.00
67559;DHT22;54388;53.536;49.300;2023-06-04T07:42:26;42.90;16.20
67559;DHT22;54388;53.536;49.300;2023-06-04T07:44:55;42.90;16.30
67559;DHT22;54388;53.536;49.300;2023-06-04T07:47:24;42.90;16.30
67559;DHT22;54388;53.536;49.300;2023-06-04T07:49:51;42.90;16.50
67559;DHT22;54388;53.536;49.300;2023-06-04T07:52:21;42.90;16.70
67559;DHT22;54388;53.536;49.300;2023-06-04T07:54:50;42.80;16.80
67559;DHT22;54388;53.536;49.300;2023-06-04T07:57:17;42.60;17.00
67559;DHT22;54388;53.536;49.300;2023-06-04T07:59:46;42.40;17.00
67559;DHT22;54388;53.536;49.300;2023-06-04T08:02:13;42.20;17.10
67559;DHT22;54388;53.536;49.300;2023-06-04T08:04:44;41.90;17.20
67559;DHT22;54388;53.536;49.300;2023-06-04T08:07:12;41.60;17.30
67559;DHT22;54388;53.536;49.300;2023-06-04T08:09:42;41.50;17.40
67559;DHT22;54388;53.536;49.300;2023-06-04T08:12:11;41.40;17.40
67559;DHT22;54388;53.536;49.300;2023-06-04T08:14:38;41.30;17.50
67559;DHT22;54388;53.536;49.300;2023-06-04T08:17:08;41.20;17.60
67559;DHT22;54388;53.536;49.300;2023-06-04T08:19:37;41.00;17.70
67559;DHT22;54388;53.536;49.300;2023-06-04T08:22:09;40.90;17.90
67559;DHT22;54388;53.536;49.300;2023-06-04T08:24:43;40.70;18.20
67559;DHT22;54388;53.536;49.300;2023-06-04T08:27:12;40.70;18.50
67559;DHT22;54388;53.536;49.300;2023-06-04T08:29:41;40.60;18.50
67559;DHT22;54388;53.536;49.300;2023-06-04T08:32:10;40.70;18.40
67559;DHT22;54388;53.536;49.300;2023-06-04T08:34:44;40.70;18.30
67559;DHT22;54388;53.536;49.300;2023-06-04T08:37:13;40.80;18.10
67559;DHT22;54388;53.536;49.300;2023-06-04T08:39:45;40.90;18.10
67559;DHT22;54388;53.536;49.300;2023-06-04T08:42:42;40.90;17.90
67559;DHT22;54388;53.536;49.300;2023-06-04T08:45:12;40.80;17.90
67559;DHT22;54388;53.536;49.300;2023-06-04T08:47:44;40.80;18.10
67559;DHT22;54388;53.536;49.300;2023-06-04T08:50:19;40.70;18.10
67559;DHT22;54388;53.536;49.300;2023-06-04T08:52:57;40.50;18.20
67559;DHT22;54388;53.536;49.300;2023-06-04T08:55:27;40.30;18.40
67559;DHT22;54388;53.536;49.300;2023-06-04T08:58:00;40.10;18.40
67559;DHT22;54388;53.536;49.300;2023-06-04T09:00:34;39.80;18.80
67559;DHT22;54388;53.536;49.300;2023-06-04T09:03:08;39.40;19.20
67559;DHT22;54388;53.536;49.300;2023-06-04T09:05:38;39.20;19.50
67559;DHT22;54388;53.536;49.300;2023-06-04T09:08:11;39.10;19.60
67559;DHT22;54388;53.536;49.300;2023-06-04T09:10:41;39.00;19.60
67559;DHT22;54388;53.536;49.300;2023-06-04T09:13:11;39.00;19.80
67559;DHT22;54388;53.536;49.300;2023-06-04T09:15:38;38.90;20.10
67559;DHT22;54388;53.536;49.300;2023-06-04T09:18:05;38.80;20.30
67559;DHT22;54388;53.536;49.300;2023-06-04T09:20:32;38.50;20.30
67559;DHT22;54388;53.536;49.300;2023-06-04T09:23:01;38.20;20.50
67559;DHT22;54388;53.536;49.300;2023-06-04T09:25:42;37.90;20.80
67559;DHT22;54388;53.536;49.300;2023-06-04T09:28:12;37.70;21.00
67559;DHT22;54388;53.536;49.300;2023-06-04T09:30:51;37.70;21.30
67559;DHT22;54388;53.536;49.300;2023-06-04T09:33:18;37.50;20.90
67559;DHT22;54388;53.536;49.300;2023-06-04T09:35:56;37.50;20.60
67559;DHT22;54388;53.536;49.300;2023-06-04T09:38:32;37.40;21.00
67559;DHT22;54388;53.536;49.300;2023-06-04T09:40:59;37.40;21.20
67559;DHT22;54388;53.536;49.300;2023-06-04T09:43:27;37.30;20.70
67559;DHT22;54388;53.536;49.300;2023-06-04T09:46:07;37.30;20.70
67559;DHT22;54388;53.536;49.300;2023-06-04T09:48:36;37.20;20.90
67559;DHT22;54388;53.536;49.300;2023-06-04T09:51:24;37.30;21.00
67559;DHT22;54388;53.536;49.300;2023-06-04T09:53:55;37.20;21.10
67559;DHT22;54388;53.536;49.300;2023-06-04T09:56:26;37.10;21.20
67559;DHT22;54388;53.536;49.300;2023-06-04T09:58:59;36.80;21.20
67559;DHT22;54388;53.536;49.300;2023-06-04T10:01:32;36.70;21.30
67559;DHT22;54388;53.536;49.300;2023-06-04T10:04:06;36.70;21.30
67559;DHT22;54388;53.536;49.300;2023-06-04T10:06:35;36.60;21.30
67559;DHT22;54388;53.536;49.300;2023-06-04T10:09:09;36.50;21.30
67559;DHT22;54388;53.536;49.300;2023-06-04T10:11:44;36.20;21.20
67559;DHT22;54388;53.536;49.300;2023-06-04T10:14:35;36.20;21.30
67559;DHT22;54388;53.536;49.300;2023-06-04T10:17:06;36.20;21.30
67559;DHT22;54388;53.536;49.300;2023-06-04T10:19:37;36.10;20.90
67559;DHT22;54388;53.536;49.300;2023-06-04T10:22:05;36.00;20.90
67559;DHT22;54388;53.536;49.300;2023-06-04T10:24:32;35.80;21.10
67559;DHT22;54388;53.536;49.300;2023-06-04T10:27:01;35.70;21.60
67559;DHT22;54388;53.536;49.300;2023-06-04T10:29:37;35.50;22.00
67559;DHT22;54388;53.536;49.300;2023-06-04T10:32:08;35.50;22.70
67559;DHT22;54388;53.536;49.300;2023-06-04T10:34:36;35.50;22.80
67559;DHT22;54388;53.536;49.300;2023-06-04T10:37:06;35.40;22.70
67559;DHT22;54388;53.536;49.300;2023-06-04T10:39:35;35.30;22.80
67559;DHT22;54388;53.536;49.300;2023-06-04T10:42:04;35.30;22.90
67559;DHT22;54388;53.536;49.300;2023-06-04T10:44:32;35.20;22.80
67559;DHT22;54388;53.536;49.300;2023-06-04T10:47:29;35.10;22.80
67559;DHT22;54388;53.536;49.300;2023-06-04T10:50:08;35.10;22.90
67559;DHT22;54388;53.536;49.300;2023-06-04T10:52:37;35.00;22.90
67559;DHT22;54388;53.536;49.300;2023-06-04T10:55:10;34.90;22.90
67559;DHT22;54388;53.536;49.300;2023-06-04T10:57:39;34.80;22.90
67559;DHT22;54388;53.536;49.300;2023-06-04T11:00:33;34.70;22.90
67559;DHT22;54388;53.536;49.300;2023-06-04T11:03:03;34.60;22.80
67559;DHT22;54388;53.536;49.300;2023-06-04T11:05:43;34.40;22.60
67559;DHT22;54388;53.536;49.300;2023-06-04T11:08:14;34.30;22.80
67559;DHT22;54388;53.536;49.300;2023-06-04T11:10:47;34.20;22.90
67559;DHT22;54388;53.536;49.300;2023-06-04T11:13:14;34.10;23.00
67559;DHT22;54388;53.536;49.300;2023-06-04T11:15:45;34.00;23.00
67559;DHT22;54388;53.536;49.300;2023-06-04T11:18:22;34.10;22.80
67559;DHT22;54388;53.536;49.300;2023-06-04T11:21:02;34.30;22.60
67559;DHT22;54388;53.536;49.300;2023-06-04T11:23:33;34.50;22.30
67559;DHT22;54388;53.536;49.300;2023-06-04T11:26:05;34.60;22.90
67559;DHT22;54388;53.536;49.300;2023-06-04T11:28:32;34.80;21.40
67559;DHT22;54388;53.536;49.300;2023-06-04T11:31:00;35.00;20.80
67559;DHT22;54388;53.536;49.300;2023-06-04T11:33:45;35.20;20.50
67559;DHT22;54388;53.536;49.300;2023-06-04T11:36:30;35.30;20.20
67559;DHT22;54388;53.536;49.300;2023-06-04T11:39:02;35.30;20.20
67559;DHT22;54388;53.536;49.300;2023-06-04T11:41:32;35.20;20.00
67559;DHT22;54388;53.536;49.300;2023-06-04T11:44:05;35.30;19.80
67559;DHT22;54388;53.536;49.300;2023-06-04T11:46:39;35.20;20.10
67559;DHT22;54388;53.536;49.300;2023-06-04T11:49:06;35.10;20.30
67559;DHT22;54388;53.536;49.300;2023-06-04T11:51:44;35.10;20.30
67559;DHT22;54388;53.536;49.300;2023-06-04T11:54:13;35.30;20.50
67559;DHT22;54388;53.536;49.300;2023-06-04T11:56:43;35.30;20.30
67559;DHT22;54388;53.536;49.300;2023-06-04T11:59:12;35.30;20.30
67559;DHT22;54388;53.536;49.300;2023-06-04T12:01:44;35.40;20.30
67559;DHT22;54388;53.536;49.300;2023-06-04T12:04:21;35.50;20.50
67559;DHT22;54388;53.536;49.300;2023-06-04T12:06:58;35.60;20.50
67559;DHT22;54388;53.536;49.300;2023-06-04T12:09:28;35.60;20.60
67559;DHT22;54388;53.536;49.300;2023-06-04T12:12:06;35.80;20.60
67559;DHT22;54388;53.536;49.300;2023-06-04T12:14:35;35.90;20.30
67559;DHT22;54388;53.536;49.300;2023-06-04T12:17:06;36.00;20.30
67559;DHT22;54388;53.536;49.300;2023-06-04T12:19:50;35.90;20.40
67559;DHT22;54388;53.536;49.300;2023-06-04T12:22:19;35.90;20.60
67559;DHT22;54388;53.536;49.300;2023-06-04T12:24:57;35.90;20.60
67559;DHT22;54388;53.536;49.300;2023-06-04T12:27:27;35.90;20.60
67559;DHT22;54388;53.536;49.300;2023-06-04T12:29:59;35.80;20.60
67559;DHT22;54388;53.536;49.300;2023-06-04T12:32:34;35.70;20.80
67559;DHT22;54388;53.536;49.300;2023-06-04T12:35:05;35.70;20.90
67559;DHT22;54388;53.536;49.300;2023-06-04T12:37:37;35.60;20.70
67559;DHT22;54388;53.536;49.300;2023-06-04T12:40:11;35.80;20.70
67559;DHT22;54388;53.536;49.300;2023-06-04T12:42:40;35.80;20.40
67559;DHT22;54388;53.536;49.300;2023-06-04T12:45:09;35.90;20.30
67559;DHT22;54388;53.536;49.300;2023-06-04T12:47:36;36.10;20.10
67559;DHT22;54388;53.536;49.300;2023-06-04T12:50:08;36.20;20.00
67559;DHT22;54388;53.536;49.300;2023-06-04T12:52:38;36.10;19.80
67559;DHT22;54388;53.536;49.300;2023-06-04T12:55:10;36.10;19.60
67559;DHT22;54388;53.536;49.300;2023-06-04T12:57:41;36.10;19.40
67559;DHT22;54388;53.536;49.300;2023-06-04T13:00:10;36.10;19.50
67559;DHT22;54388;53.536;49.300;2023-06-04T13:02:37;36.00;19.60
67559;DHT22;54388;53.536;49.300;2023-06-04T13:05:04;36.00;19.80
67559;DHT22;54388;53.536;49.300;2023-06-04T13:07:36;36.00;19.90
67559;DHT22;54388;53.536;49.300;2023-06-04T13:10:08;36.10;19.90
67559;DHT22;54388;53.536;49.300;2023-06-04T13:12:35;36.10;19.90
67559;DHT22;54388;53.536;49.300;2023-06-04T13:15:03;36.10;19.80
67559;DHT22;54388;53.536;49.300;2023-06-04T13:17:30;36.20;19.80
67559;DHT22;54388;53.536;49.300;2023-06-04T13:19:57;36.20;19.80
67559;DHT22;54388;53.536;49.300;2023-06-04T13:22:26;36.30;19.80
67559;DHT22;54388;53.536;49.300;2023-06-04T13:24:53;36.30;19.70
67559;DHT22;54388;53.536;49.300;2023-06-04T13:27:22;36.40;19.70
67559;DHT22;54388;53.536;49.300;2023-06-04T13:29:51;36.40;19.60
67559;DHT22;54388;53.536;49.300;2023-06-04T13:32:18;36.50;19.50
67559;DHT22;54388;53.536;49.300;2023-06-04T13:34:45;36.40;19.50
67559;DHT22;54388;53.536;49.300;2023-06-04T13:37:14;36.20;19.50
67559;DHT22;54388;53.536;49.300;2023-06-04T13:39:41;36.10;19.60
67559;DHT22;54388;53.536;49.300;2023-06-04T13:42:09;36.00;19.80
67559;DHT22;54388;53.536;49.300;2023-06-04T13:44:36;35.90;19.90
67559;DHT22;54388;53.536;49.300;2023-06-04T13:47:03;35.80;19.90
67559;DHT22;54388;53.536;49.300;2023-06-04T13:49:33;35.70;20.00
67559;DHT22;54388;53.536;49.300;2023-06-04T13:52:03;35.50;19.80
67559;DHT22;54388;53.536;49.300;2023-06-04T13:54:32;35.50;19.60
67559;DHT22;54388;53.536;49.300;2023-06-04T13:57:03;35.30;19.60
67559;DHT22;54388;53.536;49.300;2023-06-04T13:59:33;35.20;19.60
67559;DHT22;54388;53.536;49.300;2023-06-04T14:02:05;35.20;19.60
67559;DHT22;54388;53.536;49.300;2023-06-04T14:04:37;35.10;19.80
67559;DHT22;54388;53.536;49.300;2023-06-04T14:07:06;34.90;19.80
67559;DHT22;54388;53.536;49.300;2023-06-04T14:09:38;34.90;19.90
67559;DHT22;54388;53.536;49.300;2023-06-04T14:12:05;34.80;20.00
67559;DHT22;54388;53.536;49.300;2023-06-04T14:14:40;34.80;20.10
67559;DHT22;54388;53.536;49.300;2023-06-04T14:17:07;34.70;20.10
67559;DHT22;54388;53.536;49.300;2023-06-04T14:19:34;34.60;20.20
67559;DHT22;54388;53.536;49.300;2023-06-04T14:22:04;34.70;20.20
67559;DHT22;54388;53.536;49.300;2023-06-04T14:24:31;34.70;21.00
67559;DHT22;54388;53.536;49.300;2023-06-04T14:26:58;34.60;20.00
67559;DHT22;54388;53.536;49.300;2023-06-04T14:29:30;34.50;20.10
67559;DHT22;54388;53.536;49.300;2023-06-04T14:31:57;34.50;20.10
67559;DHT22;54388;53.536;49.300;2023-06-04T14:34:26;34.40;20.20
67559;DHT22;54388;53.536;49.300;2023-06-04T14:36:56;34.40;20.30
67559;DHT22;54388;53.536;49.300;2023-06-04T14:39:28;34.30;20.30
67559;DHT22;54388;53.536;49.300;2023-06-04T14:41:59;34.20;20.30
67559;DHT22;54388;53.536;49.300;2023-06-04T14:44:28;34.10;20.30
67559;DHT22;54388;53.536;49.300;2023-06-04T14:46:55;34.10;20.40
67559;DHT22;54388;53.536;49.300;2023-06-04T14:49:25;34.00;20.40
67559;DHT22;54388;53.536;49.300;2023-06-04T14:51:52;33.80;20.50
67559;DHT22;54388;53.536;49.300;2023-06-04T14:54:19;33.70;20.60
67559;DHT22;54388;53.536;49.300;2023-06-04T14:56:46;33.50;20.70
67559;DHT22;54388;53.536;49.300;2023-06-04T14:59:15;33.30;20.80
67559;DHT22;54388;53.536;49.300;2023-06-04T15:01:42;33.00;20.90
67559;DHT22;54388;53.536;49.300;2023-06-04T15:04:12;32.70;21.10
67559;DHT22;54388;53.536;49.300;2023-06-04T15:06:41;32.50;21.20
67559;DHT22;54388;53.536;49.300;2023-06-04T15:09:11;32.40;21.40
67559;DHT22;54388;53.536;49.300;2023-06-04T15:11:40;32.30;21.30
67559;DHT22;54388;53.536;49.300;2023-06-04T15:14:08;32.20;21.40
67559;DHT22;54388;53.536;49.300;2023-06-04T15:16:35;32.00;21.60
67559;DHT22;54388;53.536;49.300;2023-06-04T15:19:08;31.80;21.70
67559;DHT22;54388;53.536;49.300;2023-06-04T15:21:38;31.50;21.90
67559;DHT22;54388;53.536;49.300;2023-06-04T15:24:07;31.30;22.80
67559;DHT22;54388;53.536;49.300;2023-06-04T15:26:39;31.10;22.20
67559;DHT22;54388;53.536;49.300;2023-06-04T15:29:12;31.00;22.20
67559;DHT22;54388;53.536;49.300;2023-06-04T15:31:38;31.00;22.20
67559;DHT22;54388;53.536;49.300;2023-06-04T15:34:05;30.90;22.10
67559;DHT22;54388;53.536;49.300;2023-06-04T15:36:33;30.90;22.00
67559;DHT22;54388;53.536;49.300;2023-06-04T15:39:03;31.00;22.00